Hauptseite
METAR-TAF:

METAR-TAF

Flughäfen :

Passo Rolle, Italien

Breite: 46-18N, Länge: 011-47E, Höhe: 2004 m

Beobachtung

Neuester Wetterbericht von vor 1 Stunde und 23 Minuten, um 17:55 UTC
Wind 6 kt aus Südost
Temperatur 15°C
Luftfeuchtigkeit 55%
Luftdruck 1027 hPa
Sichtweite 10 km oder mehr
Leicht bewölkt in der Höhe von 2500 ft

METAR: LIVR 191755Z 13006KT 9999 FEW025 15/06 Q1027 RMK FEW MON CLD SCT VIS MIN 9999

Zeit: 21:18 (19:18 UTC)


TAF: fehlend

Wetterbeobachtungen und Prognosen von mehr als 4000 Flughäfen (METAR und TAF Bericht).

Die verfügbaren Stationen werden durch gelbe und rote Markierungen auf der Karte dargestellt.

Führen Sie die Maus auf sie, um den Namen der Station zu sehen.

Darauf klicken, um die Beobachtung von Wetterbeobachtungen und Prognosen zu sehen.

Um die Karte zu ändern : klicken Sie auf den grünen Tasten mit einem schwarzen Kreuz Zum Vergrößern, auf den grünen Button mit einem Gedankenstrich zu verkleinern, oder auf die grünen Pfeile für benachbarte Karten.


METAR-TAF: